sensor_id;sensor_type;location;lat;lon;timestamp;P1;durP1;ratioP1;P2;durP2;ratioP2
47539;SDS011;33280;52.152;21.052;2024-01-15T00:00:55;15.63;;;7.80;;
47539;SDS011;33280;52.152;21.052;2024-01-15T00:03:43;13.03;;;7.87;;
47539;SDS011;33280;52.152;21.052;2024-01-15T00:06:37;12.03;;;7.33;;
47539;SDS011;33280;52.152;21.052;2024-01-15T00:10:08;13.90;;;7.37;;
47539;SDS011;33280;52.152;21.052;2024-01-15T00:12:59;14.10;;;7.33;;
47539;SDS011;33280;52.152;21.052;2024-01-15T00:15:50;13.43;;;7.93;;
47539;SDS011;33280;52.152;21.052;2024-01-15T00:18:43;15.27;;;7.73;;
47539;SDS011;33280;52.152;21.052;2024-01-15T00:21:40;15.30;;;8.00;;
47539;SDS011;33280;52.152;21.052;2024-01-15T00:24:27;13.57;;;8.23;;
47539;SDS011;33280;52.152;21.052;2024-01-15T00:27:15;14.17;;;8.30;;
47539;SDS011;33280;52.152;21.052;2024-01-15T00:30:03;15.03;;;8.20;;
47539;SDS011;33280;52.152;21.052;2024-01-15T00:32:51;14.00;;;8.73;;
47539;SDS011;33280;52.152;21.052;2024-01-15T00:35:42;13.80;;;8.00;;
47539;SDS011;33280;52.152;21.052;2024-01-15T00:38:37;14.40;;;8.23;;
47539;SDS011;33280;52.152;21.052;2024-01-15T00:41:25;13.67;;;8.37;;
47539;SDS011;33280;52.152;21.052;2024-01-15T00:44:14;15.63;;;8.60;;
47539;SDS011;33280;52.152;21.052;2024-01-15T00:47:03;15.83;;;8.80;;
47539;SDS011;33280;52.152;21.052;2024-01-15T00:49:52;17.33;;;9.40;;
47539;SDS011;33280;52.152;21.052;2024-01-15T00:52:42;18.03;;;9.43;;
47539;SDS011;33280;52.152;21.052;2024-01-15T00:55:31;16.93;;;9.20;;
47539;SDS011;33280;52.152;21.052;2024-01-15T00:58:27;15.83;;;8.90;;
47539;SDS011;33280;52.152;21.052;2024-01-15T01:01:14;16.60;;;8.77;;
47539;SDS011;33280;52.152;21.052;2024-01-15T01:04:04;18.50;;;9.93;;
47539;SDS011;33280;52.152;21.052;2024-01-15T01:06:52;16.93;;;9.73;;
47539;SDS011;33280;52.152;21.052;2024-01-15T01:09:40;17.23;;;9.37;;
47539;SDS011;33280;52.152;21.052;2024-01-15T01:12:32;16.87;;;9.70;;
47539;SDS011;33280;52.152;21.052;2024-01-15T01:15:22;20.67;;;10.53;;
47539;SDS011;33280;52.152;21.052;2024-01-15T01:18:12;21.00;;;10.73;;
47539;SDS011;33280;52.152;21.052;2024-01-15T01:21:02;18.97;;;10.13;;
47539;SDS011;33280;52.152;21.052;2024-01-15T01:23:52;22.00;;;11.27;;
47539;SDS011;33280;52.152;21.052;2024-01-15T01:26:39;20.80;;;10.87;;
47539;SDS011;33280;52.152;21.052;2024-01-15T01:29:45;19.30;;;10.93;;
47539;SDS011;33280;52.152;21.052;2024-01-15T01:32:33;20.80;;;10.90;;
47539;SDS011;33280;52.152;21.052;2024-01-15T01:35:25;21.23;;;11.23;;
47539;SDS011;33280;52.152;21.052;2024-01-15T01:38:36;21.77;;;11.63;;
47539;SDS011;33280;52.152;21.052;2024-01-15T01:41:23;24.80;;;12.43;;
47539;SDS011;33280;52.152;21.052;2024-01-15T01:44:22;24.13;;;12.37;;
47539;SDS011;33280;52.152;21.052;2024-01-15T01:47:16;24.03;;;12.60;;
47539;SDS011;33280;52.152;21.052;2024-01-15T01:50:03;22.70;;;12.37;;
47539;SDS011;33280;52.152;21.052;2024-01-15T01:53:01;23.63;;;12.67;;
47539;SDS011;33280;52.152;21.052;2024-01-15T01:55:54;21.97;;;11.97;;
47539;SDS011;33280;52.152;21.052;2024-01-15T01:58:51;23.47;;;12.57;;
47539;SDS011;33280;52.152;21.052;2024-01-15T02:01:46;24.87;;;12.20;;
47539;SDS011;33280;52.152;21.052;2024-01-15T02:04:47;20.57;;;11.63;;
47539;SDS011;33280;52.152;21.052;2024-01-15T02:07:36;23.30;;;12.07;;
47539;SDS011;33280;52.152;21.052;2024-01-15T02:10:23;21.27;;;11.80;;
47539;SDS011;33280;52.152;21.052;2024-01-15T02:13:17;23.30;;;11.93;;
47539;SDS011;33280;52.152;21.052;2024-01-15T02:16:17;21.90;;;11.50;;
47539;SDS011;33280;52.152;21.052;2024-01-15T02:19:15;21.80;;;12.20;;
47539;SDS011;33280;52.152;21.052;2024-01-15T02:22:04;20.63;;;11.43;;
47539;SDS011;33280;52.152;21.052;2024-01-15T02:24:53;22.90;;;12.10;;
47539;SDS011;33280;52.152;21.052;2024-01-15T02:27:41;21.67;;;11.77;;
47539;SDS011;33280;52.152;21.052;2024-01-15T02:30:30;20.70;;;10.80;;
47539;SDS011;33280;52.152;21.052;2024-01-15T02:33:19;19.77;;;10.40;;
47539;SDS011;33280;52.152;21.052;2024-01-15T02:36:06;19.47;;;10.77;;
47539;SDS011;33280;52.152;21.052;2024-01-15T02:38:54;21.47;;;10.97;;
47539;SDS011;33280;52.152;21.052;2024-01-15T02:41:45;19.70;;;10.50;;
47539;SDS011;33280;52.152;21.052;2024-01-15T02:44:39;21.23;;;11.37;;
47539;SDS011;33280;52.152;21.052;2024-01-15T02:47:26;19.67;;;11.20;;
47539;SDS011;33280;52.152;21.052;2024-01-15T02:50:14;20.67;;;11.17;;
47539;SDS011;33280;52.152;21.052;2024-01-15T02:53:01;18.87;;;10.40;;
47539;SDS011;33280;52.152;21.052;2024-01-15T02:55:55;22.30;;;10.93;;
47539;SDS011;33280;52.152;21.052;2024-01-15T02:58:45;19.13;;;10.40;;
47539;SDS011;33280;52.152;21.052;2024-01-15T03:01:33;20.07;;;10.90;;
47539;SDS011;33280;52.152;21.052;2024-01-15T03:04:20;19.80;;;10.60;;
47539;SDS011;33280;52.152;21.052;2024-01-15T03:07:19;19.47;;;10.43;;
47539;SDS011;33280;52.152;21.052;2024-01-15T03:10:09;20.80;;;10.77;;
47539;SDS011;33280;52.152;21.052;2024-01-15T03:12:57;19.97;;;11.03;;
47539;SDS011;33280;52.152;21.052;2024-01-15T03:15:44;20.87;;;10.80;;
47539;SDS011;33280;52.152;21.052;2024-01-15T03:18:32;22.80;;;12.20;;
47539;SDS011;33280;52.152;21.052;2024-01-15T03:21:20;19.83;;;10.07;;
47539;SDS011;33280;52.152;21.052;2024-01-15T03:24:10;23.73;;;11.23;;
47539;SDS011;33280;52.152;21.052;2024-01-15T03:27:00;23.03;;;11.63;;
47539;SDS011;33280;52.152;21.052;2024-01-15T03:29:48;22.40;;;12.03;;
47539;SDS011;33280;52.152;21.052;2024-01-15T03:32:45;20.10;;;10.50;;
47539;SDS011;33280;52.152;21.052;2024-01-15T03:35:34;21.90;;;11.63;;
47539;SDS011;33280;52.152;21.052;2024-01-15T03:38:22;22.20;;;11.40;;
47539;SDS011;33280;52.152;21.052;2024-01-15T03:41:10;23.50;;;11.73;;
47539;SDS011;33280;52.152;21.052;2024-01-15T03:43:57;23.33;;;11.50;;
47539;SDS011;33280;52.152;21.052;2024-01-15T03:46:45;22.47;;;11.50;;
47539;SDS011;33280;52.152;21.052;2024-01-15T03:49:33;24.30;;;11.60;;
47539;SDS011;33280;52.152;21.052;2024-01-15T03:52:20;22.57;;;11.30;;
47539;SDS011;33280;52.152;21.052;2024-01-15T03:55:08;26.50;;;12.40;;
47539;SDS011;33280;52.152;21.052;2024-01-15T03:57:56;24.27;;;12.07;;
47539;SDS011;33280;52.152;21.052;2024-01-15T04:00:45;24.03;;;11.30;;
47539;SDS011;33280;52.152;21.052;2024-01-15T04:03:33;23.73;;;11.37;;
47539;SDS011;33280;52.152;21.052;2024-01-15T04:06:20;23.53;;;11.40;;
47539;SDS011;33280;52.152;21.052;2024-01-15T04:09:08;24.17;;;12.07;;
47539;SDS011;33280;52.152;21.052;2024-01-15T04:11:56;22.80;;;11.50;;
47539;SDS011;33280;52.152;21.052;2024-01-15T04:14:43;20.83;;;10.73;;
47539;SDS011;33280;52.152;21.052;2024-01-15T04:17:33;20.63;;;10.80;;
47539;SDS011;33280;52.152;21.052;2024-01-15T04:20:28;23.13;;;10.93;;
47539;SDS011;33280;52.152;21.052;2024-01-15T04:23:18;18.73;;;10.67;;
47539;SDS011;33280;52.152;21.052;2024-01-15T04:26:05;23.03;;;10.93;;
47539;SDS011;33280;52.152;21.052;2024-01-15T04:28:53;20.27;;;10.47;;
47539;SDS011;33280;52.152;21.052;2024-01-15T04:31:40;21.90;;;10.90;;
47539;SDS011;33280;52.152;21.052;2024-01-15T04:34:34;20.27;;;10.17;;
47539;SDS011;33280;52.152;21.052;2024-01-15T04:37:25;18.10;;;10.03;;
47539;SDS011;33280;52.152;21.052;2024-01-15T04:40:12;21.60;;;10.37;;
47539;SDS011;33280;52.152;21.052;2024-01-15T04:43:09;18.97;;;10.53;;
47539;SDS011;33280;52.152;21.052;2024-01-15T04:46:00;20.17;;;9.97;;
47539;SDS011;33280;52.152;21.052;2024-01-15T04:48:49;17.40;;;9.33;;
47539;SDS011;33280;52.152;21.052;2024-01-15T04:51:37;17.80;;;10.10;;
47539;SDS011;33280;52.152;21.052;2024-01-15T04:54:25;17.20;;;9.60;;
47539;SDS011;33280;52.152;21.052;2024-01-15T04:57:12;19.43;;;10.10;;
47539;SDS011;33280;52.152;21.052;2024-01-15T05:00:00;20.07;;;9.63;;
47539;SDS011;33280;52.152;21.052;2024-01-15T05:02:47;17.33;;;9.20;;
47539;SDS011;33280;52.152;21.052;2024-01-15T05:05:34;19.50;;;9.47;;
47539;SDS011;33280;52.152;21.052;2024-01-15T05:08:31;17.70;;;9.53;;
47539;SDS011;33280;52.152;21.052;2024-01-15T05:11:18;17.17;;;9.07;;
47539;SDS011;33280;52.152;21.052;2024-01-15T05:14:05;18.27;;;10.13;;
47539;SDS011;33280;52.152;21.052;2024-01-15T05:16:55;17.77;;;9.70;;
47539;SDS011;33280;52.152;21.052;2024-01-15T05:20:01;16.37;;;9.47;;
47539;SDS011;33280;52.152;21.052;2024-01-15T05:22:50;18.27;;;9.73;;
47539;SDS011;33280;52.152;21.052;2024-01-15T05:25:37;19.17;;;9.43;;
47539;SDS011;33280;52.152;21.052;2024-01-15T05:28:25;19.50;;;9.40;;
47539;SDS011;33280;52.152;21.052;2024-01-15T05:31:15;18.90;;;9.63;;
47539;SDS011;33280;52.152;21.052;2024-01-15T05:34:03;16.30;;;9.20;;
47539;SDS011;33280;52.152;21.052;2024-01-15T05:36:53;16.33;;;9.30;;
47539;SDS011;33280;52.152;21.052;2024-01-15T05:39:50;17.07;;;9.50;;
47539;SDS011;33280;52.152;21.052;2024-01-15T05:42:38;15.50;;;8.73;;
47539;SDS011;33280;52.152;21.052;2024-01-15T05:45:26;20.17;;;8.50;;
47539;SDS011;33280;52.152;21.052;2024-01-15T05:48:16;18.43;;;9.13;;
47539;SDS011;33280;52.152;21.052;2024-01-15T05:51:04;15.97;;;8.83;;
47539;SDS011;33280;52.152;21.052;2024-01-15T05:53:53;15.67;;;8.27;;
47539;SDS011;33280;52.152;21.052;2024-01-15T05:56:52;15.30;;;8.20;;
47539;SDS011;33280;52.152;21.052;2024-01-15T05:59:42;14.23;;;8.20;;
47539;SDS011;33280;52.152;21.052;2024-01-15T06:02:34;17.30;;;9.00;;
47539;SDS011;33280;52.152;21.052;2024-01-15T06:05:21;14.80;;;8.33;;
47539;SDS011;33280;52.152;21.052;2024-01-15T06:08:09;15.93;;;8.60;;
47539;SDS011;33280;52.152;21.052;2024-01-15T06:10:56;14.37;;;8.37;;
47539;SDS011;33280;52.152;21.052;2024-01-15T06:13:51;15.77;;;8.17;;
47539;SDS011;33280;52.152;21.052;2024-01-15T06:16:39;15.43;;;8.47;;
47539;SDS011;33280;52.152;21.052;2024-01-15T06:19:30;13.93;;;8.20;;
47539;SDS011;33280;52.152;21.052;2024-01-15T06:22:18;16.27;;;8.73;;
47539;SDS011;33280;52.152;21.052;2024-01-15T06:25:14;16.23;;;8.77;;
47539;SDS011;33280;52.152;21.052;2024-01-15T06:28:09;16.93;;;8.53;;
47539;SDS011;33280;52.152;21.052;2024-01-15T06:31:04;15.57;;;8.60;;
47539;SDS011;33280;52.152;21.052;2024-01-15T06:33:53;17.40;;;8.70;;
47539;SDS011;33280;52.152;21.052;2024-01-15T06:36:55;18.80;;;8.90;;
47539;SDS011;33280;52.152;21.052;2024-01-15T06:39:46;17.37;;;9.50;;
47539;SDS011;33280;52.152;21.052;2024-01-15T06:42:34;19.40;;;9.07;;
47539;SDS011;33280;52.152;21.052;2024-01-15T06:45:24;16.30;;;9.07;;
47539;SDS011;33280;52.152;21.052;2024-01-15T06:48:13;17.70;;;8.80;;
47539;SDS011;33280;52.152;21.052;2024-01-15T06:51:03;13.83;;;8.23;;
47539;SDS011;33280;52.152;21.052;2024-01-15T06:53:57;15.63;;;8.70;;
47539;SDS011;33280;52.152;21.052;2024-01-15T06:56:45;14.80;;;8.37;;
47539;SDS011;33280;52.152;21.052;2024-01-15T06:59:33;15.27;;;8.37;;
47539;SDS011;33280;52.152;21.052;2024-01-15T07:02:23;15.23;;;8.17;;
47539;SDS011;33280;52.152;21.052;2024-01-15T07:05:10;13.17;;;8.10;;
47539;SDS011;33280;52.152;21.052;2024-01-15T07:07:58;16.67;;;8.40;;
47539;SDS011;33280;52.152;21.052;2024-01-15T07:10:46;13.70;;;7.90;;
47539;SDS011;33280;52.152;21.052;2024-01-15T07:13:36;15.50;;;8.60;;
47539;SDS011;33280;52.152;21.052;2024-01-15T07:16:25;15.50;;;8.50;;
47539;SDS011;33280;52.152;21.052;2024-01-15T07:19:23;14.60;;;8.23;;
47539;SDS011;33280;52.152;21.052;2024-01-15T07:22:12;14.53;;;8.03;;
47539;SDS011;33280;52.152;21.052;2024-01-15T07:25:00;14.30;;;8.13;;
47539;SDS011;33280;52.152;21.052;2024-01-15T07:27:47;14.50;;;8.47;;
47539;SDS011;33280;52.152;21.052;2024-01-15T07:30:36;18.20;;;8.77;;
47539;SDS011;33280;52.152;21.052;2024-01-15T07:33:26;15.20;;;8.33;;
47539;SDS011;33280;52.152;21.052;2024-01-15T07:36:15;15.17;;;8.03;;
47539;SDS011;33280;52.152;21.052;2024-01-15T07:39:03;15.93;;;9.17;;
47539;SDS011;33280;52.152;21.052;2024-01-15T07:41:51;17.80;;;9.40;;
47539;SDS011;33280;52.152;21.052;2024-01-15T07:44:39;17.30;;;9.40;;
47539;SDS011;33280;52.152;21.052;2024-01-15T07:47:26;18.33;;;9.37;;
47539;SDS011;33280;52.152;21.052;2024-01-15T07:50:14;15.33;;;9.00;;
47539;SDS011;33280;52.152;21.052;2024-01-15T07:53:02;16.37;;;8.73;;
47539;SDS011;33280;52.152;21.052;2024-01-15T07:55:50;17.53;;;9.10;;
47539;SDS011;33280;52.152;21.052;2024-01-15T07:58:37;14.97;;;8.57;;
47539;SDS011;33280;52.152;21.052;2024-01-15T08:01:25;15.13;;;8.80;;
47539;SDS011;33280;52.152;21.052;2024-01-15T08:04:12;13.67;;;8.40;;
47539;SDS011;33280;52.152;21.052;2024-01-15T08:07:00;16.17;;;8.73;;
47539;SDS011;33280;52.152;21.052;2024-01-15T08:09:48;14.90;;;7.50;;
47539;SDS011;33280;52.152;21.052;2024-01-15T08:12:36;13.60;;;8.00;;
47539;SDS011;33280;52.152;21.052;2024-01-15T08:15:24;15.13;;;8.27;;
47539;SDS011;33280;52.152;21.052;2024-01-15T08:18:17;15.07;;;8.27;;
47539;SDS011;33280;52.152;21.052;2024-01-15T08:21:04;15.10;;;8.33;;
47539;SDS011;33280;52.152;21.052;2024-01-15T08:23:52;13.83;;;7.43;;
47539;SDS011;33280;52.152;21.052;2024-01-15T08:26:39;12.97;;;7.97;;
47539;SDS011;33280;52.152;21.052;2024-01-15T08:29:27;14.57;;;7.97;;
47539;SDS011;33280;52.152;21.052;2024-01-15T08:32:16;14.27;;;7.53;;
47539;SDS011;33280;52.152;21.052;2024-01-15T08:35:04;13.43;;;8.00;;
47539;SDS011;33280;52.152;21.052;2024-01-15T08:37:52;14.33;;;7.73;;
47539;SDS011;33280;52.152;21.052;2024-01-15T08:40:40;12.47;;;7.03;;
47539;SDS011;33280;52.152;21.052;2024-01-15T08:43:27;15.00;;;8.47;;
47539;SDS011;33280;52.152;21.052;2024-01-15T08:46:15;15.50;;;8.23;;
47539;SDS011;33280;52.152;21.052;2024-01-15T08:49:02;15.80;;;8.17;;
47539;SDS011;33280;52.152;21.052;2024-01-15T08:51:50;16.30;;;8.47;;
47539;SDS011;33280;52.152;21.052;2024-01-15T08:54:38;17.07;;;8.47;;
47539;SDS011;33280;52.152;21.052;2024-01-15T08:57:26;14.97;;;8.20;;
47539;SDS011;33280;52.152;21.052;2024-01-15T09:00:14;17.13;;;9.07;;
47539;SDS011;33280;52.152;21.052;2024-01-15T09:03:02;15.57;;;9.00;;
47539;SDS011;33280;52.152;21.052;2024-01-15T09:05:50;14.50;;;8.20;;
47539;SDS011;33280;52.152;21.052;2024-01-15T09:08:38;17.33;;;9.13;;
47539;SDS011;33280;52.152;21.052;2024-01-15T09:11:28;14.73;;;8.70;;
47539;SDS011;33280;52.152;21.052;2024-01-15T09:14:45;15.07;;;8.33;;
47539;SDS011;33280;52.152;21.052;2024-01-15T09:17:32;15.57;;;7.80;;
47539;SDS011;33280;52.152;21.052;2024-01-15T09:20:19;12.77;;;7.43;;
47539;SDS011;33280;52.152;21.052;2024-01-15T09:23:08;13.87;;;7.10;;
47539;SDS011;33280;52.152;21.052;2024-01-15T09:25:56;11.40;;;6.83;;
47539;SDS011;33280;52.152;21.052;2024-01-15T09:28:51;11.30;;;6.50;;
47539;SDS011;33280;52.152;21.052;2024-01-15T09:31:48;10.37;;;6.27;;
47539;SDS011;33280;52.152;21.052;2024-01-15T09:34:37;13.03;;;6.67;;
47539;SDS011;33280;52.152;21.052;2024-01-15T09:37:31;10.07;;;6.07;;
47539;SDS011;33280;52.152;21.052;2024-01-15T09:40:32;13.33;;;5.63;;
47539;SDS011;33280;52.152;21.052;2024-01-15T09:43:20;12.33;;;5.20;;
47539;SDS011;33280;52.152;21.052;2024-01-15T09:46:14;8.70;;;5.00;;
47539;SDS011;33280;52.152;21.052;2024-01-15T09:49:03;15.00;;;5.57;;
47539;SDS011;33280;52.152;21.052;2024-01-15T09:51:58;9.90;;;5.37;;
47539;SDS011;33280;52.152;21.052;2024-01-15T09:54:58;10.40;;;5.00;;
47539;SDS011;33280;52.152;21.052;2024-01-15T09:57:47;10.77;;;5.20;;
47539;SDS011;33280;52.152;21.052;2024-01-15T10:00:44;7.30;;;4.40;;
47539;SDS011;33280;52.152;21.052;2024-01-15T10:03:31;8.03;;;4.63;;
47539;SDS011;33280;52.152;21.052;2024-01-15T10:06:21;8.33;;;4.67;;
47539;SDS011;33280;52.152;21.052;2024-01-15T10:09:24;9.10;;;4.73;;
47539;SDS011;33280;52.152;21.052;2024-01-15T10:12:23;9.60;;;4.60;;
47539;SDS011;33280;52.152;21.052;2024-01-15T10:15:17;8.67;;;4.57;;
47539;SDS011;33280;52.152;21.052;2024-01-15T10:18:08;8.53;;;4.30;;
47539;SDS011;33280;52.152;21.052;2024-01-15T10:25:42;11.17;;;4.10;;
47539;SDS011;33280;52.152;21.052;2024-01-15T10:28:30;10.13;;;4.20;;
47539;SDS011;33280;52.152;21.052;2024-01-15T10:31:23;10.57;;;4.63;;
47539;SDS011;33280;52.152;21.052;2024-01-15T10:34:18;7.43;;;4.23;;
47539;SDS011;33280;52.152;21.052;2024-01-15T10:37:23;8.13;;;4.30;;
47539;SDS011;33280;52.152;21.052;2024-01-15T10:40:15;8.57;;;4.33;;
47539;SDS011;33280;52.152;21.052;2024-01-15T10:43:05;8.83;;;4.53;;
47539;SDS011;33280;52.152;21.052;2024-01-15T10:45:53;9.23;;;4.40;;
47539;SDS011;33280;52.152;21.052;2024-01-15T10:48:40;8.10;;;4.37;;
47539;SDS011;33280;52.152;21.052;2024-01-15T10:51:28;8.87;;;4.70;;
47539;SDS011;33280;52.152;21.052;2024-01-15T10:54:18;8.70;;;4.50;;
47539;SDS011;33280;52.152;21.052;2024-01-15T10:57:18;10.03;;;4.83;;
47539;SDS011;33280;52.152;21.052;2024-01-15T11:00:22;10.13;;;4.63;;
47539;SDS011;33280;52.152;21.052;2024-01-15T11:03:12;8.27;;;4.43;;
47539;SDS011;33280;52.152;21.052;2024-01-15T11:06:16;7.93;;;4.60;;
47539;SDS011;33280;52.152;21.052;2024-01-15T11:09:37;11.63;;;5.00;;
47539;SDS011;33280;52.152;21.052;2024-01-15T11:12:40;11.13;;;5.00;;
47539;SDS011;33280;52.152;21.052;2024-01-15T11:15:30;10.30;;;5.13;;
47539;SDS011;33280;52.152;21.052;2024-01-15T11:18:17;9.83;;;5.20;;
47539;SDS011;33280;52.152;21.052;2024-01-15T11:27:40;14.47;;;5.60;;
47539;SDS011;33280;52.152;21.052;2024-01-15T11:30:38;8.77;;;5.07;;
47539;SDS011;33280;52.152;21.052;2024-01-15T11:33:32;10.53;;;5.40;;
47539;SDS011;33280;52.152;21.052;2024-01-15T11:37:00;13.33;;;5.50;;
47539;SDS011;33280;52.152;21.052;2024-01-15T11:39:40;10.20;;;5.20;;
47539;SDS011;33280;52.152;21.052;2024-01-15T11:42:37;14.03;;;5.57;;
47539;SDS011;33280;52.152;21.052;2024-01-15T11:45:25;11.07;;;5.43;;
47539;SDS011;33280;52.152;21.052;2024-01-15T11:48:14;11.37;;;6.00;;
47539;SDS011;33280;52.152;21.052;2024-01-15T11:51:04;10.20;;;5.47;;
47539;SDS011;33280;52.152;21.052;2024-01-15T11:53:54;11.47;;;5.80;;
47539;SDS011;33280;52.152;21.052;2024-01-15T11:56:56;10.77;;;5.90;;
47539;SDS011;33280;52.152;21.052;2024-01-15T11:59:49;12.87;;;5.60;;
47539;SDS011;33280;52.152;21.052;2024-01-15T12:02:43;12.93;;;6.13;;
47539;SDS011;33280;52.152;21.052;2024-01-15T12:05:36;12.70;;;5.93;;
47539;SDS011;33280;52.152;21.052;2024-01-15T12:08:33;11.13;;;5.67;;
47539;SDS011;33280;52.152;21.052;2024-01-15T12:11:21;11.20;;;5.67;;
47539;SDS011;33280;52.152;21.052;2024-01-15T12:14:21;10.80;;;5.87;;
47539;SDS011;33280;52.152;21.052;2024-01-15T12:17:16;12.93;;;5.37;;
47539;SDS011;33280;52.152;21.052;2024-01-15T12:20:08;15.07;;;6.27;;
47539;SDS011;33280;52.152;21.052;2024-01-15T12:23:00;11.03;;;6.23;;
47539;SDS011;33280;52.152;21.052;2024-01-15T12:25:53;14.67;;;6.30;;
47539;SDS011;33280;52.152;21.052;2024-01-15T12:28:41;11.63;;;5.90;;
47539;SDS011;33280;52.152;21.052;2024-01-15T12:31:39;12.03;;;6.47;;
47539;SDS011;33280;52.152;21.052;2024-01-15T12:34:30;12.07;;;6.43;;
47539;SDS011;33280;52.152;21.052;2024-01-15T12:37:27;12.90;;;6.13;;
47539;SDS011;33280;52.152;21.052;2024-01-15T12:40:18;13.93;;;6.47;;
47539;SDS011;33280;52.152;21.052;2024-01-15T12:43:07;15.07;;;7.00;;
47539;SDS011;33280;52.152;21.052;2024-01-15T12:45:54;13.63;;;6.53;;
47539;SDS011;33280;52.152;21.052;2024-01-15T12:48:51;15.20;;;6.93;;
47539;SDS011;33280;52.152;21.052;2024-01-15T12:51:39;12.33;;;6.53;;
47539;SDS011;33280;52.152;21.052;2024-01-15T12:54:28;11.90;;;6.67;;
47539;SDS011;33280;52.152;21.052;2024-01-15T12:57:16;13.00;;;6.50;;
47539;SDS011;33280;52.152;21.052;2024-01-15T13:00:21;13.33;;;6.37;;
47539;SDS011;33280;52.152;21.052;2024-01-15T13:03:10;12.10;;;6.23;;
47539;SDS011;33280;52.152;21.052;2024-01-15T13:05:57;12.77;;;6.17;;
47539;SDS011;33280;52.152;21.052;2024-01-15T13:08:45;12.40;;;5.90;;
47539;SDS011;33280;52.152;21.052;2024-01-15T13:11:34;11.83;;;6.20;;
47539;SDS011;33280;52.152;21.052;2024-01-15T13:14:26;12.07;;;6.13;;
47539;SDS011;33280;52.152;21.052;2024-01-15T13:17:14;11.90;;;6.37;;
47539;SDS011;33280;52.152;21.052;2024-01-15T13:20:03;15.97;;;7.53;;
47539;SDS011;33280;52.152;21.052;2024-01-15T13:22:51;14.27;;;6.70;;
47539;SDS011;33280;52.152;21.052;2024-01-15T13:25:39;13.83;;;6.60;;
47539;SDS011;33280;52.152;21.052;2024-01-15T13:28:27;16.80;;;7.60;;
47539;SDS011;33280;52.152;21.052;2024-01-15T13:31:22;18.50;;;7.13;;
47539;SDS011;33280;52.152;21.052;2024-01-15T13:34:12;16.40;;;6.60;;
47539;SDS011;33280;52.152;21.052;2024-01-15T13:37:03;11.80;;;6.37;;
47539;SDS011;33280;52.152;21.052;2024-01-15T13:39:51;11.87;;;5.80;;
47539;SDS011;33280;52.152;21.052;2024-01-15T13:42:40;14.90;;;6.57;;
47539;SDS011;33280;52.152;21.052;2024-01-15T13:45:27;14.07;;;6.90;;
47539;SDS011;33280;52.152;21.052;2024-01-15T13:48:19;16.30;;;6.53;;
47539;SDS011;33280;52.152;21.052;2024-01-15T13:51:08;17.30;;;6.47;;
47539;SDS011;33280;52.152;21.052;2024-01-15T13:54:01;13.30;;;6.53;;
47539;SDS011;33280;52.152;21.052;2024-01-15T13:56:51;17.57;;;6.83;;
47539;SDS011;33280;52.152;21.052;2024-01-15T13:59:38;14.37;;;6.60;;
47539;SDS011;33280;52.152;21.052;2024-01-15T14:02:27;16.50;;;6.73;;
47539;SDS011;33280;52.152;21.052;2024-01-15T14:05:14;14.93;;;7.23;;
47539;SDS011;33280;52.152;21.052;2024-01-15T14:08:03;14.20;;;6.87;;
47539;SDS011;33280;52.152;21.052;2024-01-15T14:10:50;14.97;;;6.20;;
47539;SDS011;33280;52.152;21.052;2024-01-15T14:13:39;15.20;;;6.77;;
47539;SDS011;33280;52.152;21.052;2024-01-15T14:16:28;16.73;;;7.00;;
47539;SDS011;33280;52.152;21.052;2024-01-15T14:19:16;17.93;;;6.77;;
47539;SDS011;33280;52.152;21.052;2024-01-15T14:22:09;14.53;;;6.53;;
47539;SDS011;33280;52.152;21.052;2024-01-15T14:24:56;13.40;;;5.93;;
47539;SDS011;33280;52.152;21.052;2024-01-15T14:27:44;15.07;;;6.50;;
47539;SDS011;33280;52.152;21.052;2024-01-15T14:30:32;15.90;;;6.93;;
47539;SDS011;33280;52.152;21.052;2024-01-15T14:33:19;16.53;;;6.47;;
47539;SDS011;33280;52.152;21.052;2024-01-15T14:36:07;15.03;;;6.57;;
47539;SDS011;33280;52.152;21.052;2024-01-15T14:38:54;11.93;;;6.37;;
47539;SDS011;33280;52.152;21.052;2024-01-15T14:41:45;13.13;;;6.20;;
47539;SDS011;33280;52.152;21.052;2024-01-15T14:44:33;14.33;;;5.97;;
47539;SDS011;33280;52.152;21.052;2024-01-15T14:47:22;14.93;;;6.40;;
47539;SDS011;33280;52.152;21.052;2024-01-15T14:50:11;18.53;;;7.00;;
47539;SDS011;33280;52.152;21.052;2024-01-15T14:53:02;15.20;;;6.83;;
47539;SDS011;33280;52.152;21.052;2024-01-15T14:55:49;14.27;;;6.70;;
47539;SDS011;33280;52.152;21.052;2024-01-15T14:58:44;14.50;;;6.87;;
47539;SDS011;33280;52.152;21.052;2024-01-15T15:01:31;13.30;;;5.93;;
47539;SDS011;33280;52.152;21.052;2024-01-15T15:04:19;15.77;;;6.50;;
47539;SDS011;33280;52.152;21.052;2024-01-15T15:07:14;13.70;;;6.63;;
47539;SDS011;33280;52.152;21.052;2024-01-15T15:10:02;16.10;;;7.03;;
47539;SDS011;33280;52.152;21.052;2024-01-15T15:12:52;14.43;;;6.40;;
47539;SDS011;33280;52.152;21.052;2024-01-15T15:15:39;15.87;;;6.37;;
47539;SDS011;33280;52.152;21.052;2024-01-15T15:18:27;12.90;;;6.83;;
47539;SDS011;33280;52.152;21.052;2024-01-15T15:21:17;13.93;;;6.73;;
47539;SDS011;33280;52.152;21.052;2024-01-15T15:24:05;12.77;;;6.43;;
47539;SDS011;33280;52.152;21.052;2024-01-15T15:26:53;15.83;;;6.70;;
47539;SDS011;33280;52.152;21.052;2024-01-15T15:29:44;16.60;;;7.47;;
47539;SDS011;33280;52.152;21.052;2024-01-15T15:32:31;13.83;;;7.00;;
47539;SDS011;33280;52.152;21.052;2024-01-15T15:35:20;15.67;;;6.80;;
47539;SDS011;33280;52.152;21.052;2024-01-15T15:38:08;13.50;;;6.80;;
47539;SDS011;33280;52.152;21.052;2024-01-15T15:40:55;16.00;;;7.10;;
47539;SDS011;33280;52.152;21.052;2024-01-15T15:43:43;14.43;;;6.97;;
47539;SDS011;33280;52.152;21.052;2024-01-15T15:46:31;17.40;;;7.37;;
47539;SDS011;33280;52.152;21.052;2024-01-15T15:49:19;21.30;;;7.57;;
47539;SDS011;33280;52.152;21.052;2024-01-15T15:52:06;16.70;;;7.40;;
47539;SDS011;33280;52.152;21.052;2024-01-15T15:54:54;17.53;;;7.87;;
47539;SDS011;33280;52.152;21.052;2024-01-15T15:57:42;19.33;;;8.07;;
47539;SDS011;33280;52.152;21.052;2024-01-15T16:00:30;14.87;;;7.73;;
47539;SDS011;33280;52.152;21.052;2024-01-15T16:03:18;15.63;;;7.63;;
47539;SDS011;33280;52.152;21.052;2024-01-15T16:06:05;16.37;;;7.60;;
47539;SDS011;33280;52.152;21.052;2024-01-15T16:08:53;18.70;;;7.70;;
47539;SDS011;33280;52.152;21.052;2024-01-15T16:11:40;16.17;;;7.73;;
47539;SDS011;33280;52.152;21.052;2024-01-15T16:14:28;15.93;;;7.50;;
47539;SDS011;33280;52.152;21.052;2024-01-15T16:17:16;17.80;;;7.70;;
47539;SDS011;33280;52.152;21.052;2024-01-15T16:20:24;18.93;;;7.93;;
47539;SDS011;33280;52.152;21.052;2024-01-15T16:23:31;16.77;;;8.10;;
47539;SDS011;33280;52.152;21.052;2024-01-15T16:26:38;15.87;;;7.23;;
47539;SDS011;33280;52.152;21.052;2024-01-15T16:29:27;18.87;;;8.43;;
47539;SDS011;33280;52.152;21.052;2024-01-15T16:32:14;15.83;;;7.80;;
47539;SDS011;33280;52.152;21.052;2024-01-15T16:35:02;19.07;;;7.90;;
47539;SDS011;33280;52.152;21.052;2024-01-15T16:37:50;14.07;;;7.37;;
47539;SDS011;33280;52.152;21.052;2024-01-15T16:40:38;16.87;;;7.83;;
47539;SDS011;33280;52.152;21.052;2024-01-15T16:43:26;17.93;;;7.43;;
47539;SDS011;33280;52.152;21.052;2024-01-15T16:46:14;16.27;;;7.60;;